createdAt,value
2022-12-09T00:00:32.758Z,11.00
2022-12-09T00:02:59.780Z,8.40
2022-12-09T00:05:26.542Z,10.20
2022-12-09T00:07:52.992Z,8.67
2022-12-09T00:10:19.788Z,10.20
2022-12-09T00:12:46.343Z,12.77
2022-12-09T00:15:13.036Z,9.43
2022-12-09T00:17:39.488Z,10.87
2022-12-09T00:20:06.930Z,9.10
2022-12-09T00:22:34.032Z,9.67
2022-12-09T00:25:00.464Z,11.33
2022-12-09T00:27:26.927Z,9.30
2022-12-09T00:29:53.389Z,10.07
2022-12-09T00:32:19.806Z,8.80
2022-12-09T00:34:49.020Z,10.50
2022-12-09T00:37:15.513Z,8.53
2022-12-09T00:39:41.911Z,9.70
2022-12-09T00:42:08.319Z,8.40
2022-12-09T00:44:34.719Z,10.20
2022-12-09T00:47:01.450Z,10.57
2022-12-09T00:49:28.023Z,8.17
2022-12-09T00:51:54.613Z,9.80
2022-12-09T00:54:21.135Z,12.27
2022-12-09T00:56:47.551Z,11.23
2022-12-09T00:59:14.307Z,8.23
2022-12-09T01:01:40.840Z,13.07
2022-12-09T01:04:08.675Z,9.90
2022-12-09T01:06:35.385Z,9.23
2022-12-09T01:09:03.103Z,10.07
2022-12-09T01:11:30.001Z,9.80
2022-12-09T01:14:03.094Z,8.87
2022-12-09T01:16:31.866Z,9.20
2022-12-09T01:19:00.568Z,8.93
2022-12-09T01:21:30.533Z,9.50
2022-12-09T01:23:57.036Z,7.57
2022-12-09T01:26:23.505Z,13.20
2022-12-09T01:28:52.861Z,11.80
2022-12-09T01:31:22.095Z,8.60
2022-12-09T01:33:48.688Z,10.03
2022-12-09T01:36:18.589Z,10.23
2022-12-09T01:38:46.644Z,10.30
2022-12-09T01:41:14.271Z,9.20
2022-12-09T01:43:41.049Z,9.47
2022-12-09T01:46:08.636Z,10.53
2022-12-09T01:48:40.324Z,7.47
2022-12-09T01:51:13.919Z,11.40
2022-12-09T01:53:44.026Z,8.07
2022-12-09T01:56:17.037Z,10.20
2022-12-09T01:58:44.772Z,10.40
2022-12-09T02:01:12.062Z,7.40
2022-12-09T02:03:38.763Z,8.17
2022-12-09T02:06:05.684Z,6.90
2022-12-09T02:08:32.236Z,6.87
2022-12-09T02:11:38.948Z,8.80
2022-12-09T02:14:14.221Z,9.43
2022-12-09T02:17:19.183Z,6.20
2022-12-09T02:20:44.327Z,8.73
2022-12-09T02:23:36.199Z,7.33
2022-12-09T02:26:15.067Z,7.73
2022-12-09T02:28:59.198Z,6.70
2022-12-09T02:31:41.897Z,6.27
2022-12-09T02:34:30.075Z,8.60
2022-12-09T02:37:08.778Z,7.83
2022-12-09T02:39:40.821Z,6.73
2022-12-09T02:42:09.103Z,7.47
2022-12-09T02:44:38.040Z,9.30
2022-12-09T02:47:08.794Z,9.00
2022-12-09T02:49:36.297Z,8.47
2022-12-09T02:52:04.269Z,9.13
2022-12-09T02:54:34.370Z,9.80
2022-12-09T02:57:12.887Z,6.30
2022-12-09T02:59:39.497Z,8.50
2022-12-09T03:02:28.348Z,9.70
2022-12-09T03:04:59.879Z,6.97
2022-12-09T03:07:39.133Z,5.83
2022-12-09T03:10:29.416Z,6.80
2022-12-09T03:13:06.940Z,6.10
2022-12-09T03:15:37.805Z,7.80
2022-12-09T03:18:09.265Z,6.10
2022-12-09T03:20:40.159Z,6.33
2022-12-09T03:23:08.890Z,6.80
2022-12-09T03:25:40.993Z,8.00
2022-12-09T03:28:14.307Z,8.90
2022-12-09T03:30:44.910Z,8.07
2022-12-09T03:33:14.339Z,6.20
2022-12-09T03:35:50.240Z,8.47
2022-12-09T03:38:19.475Z,9.23
2022-12-09T03:40:53.941Z,6.67
2022-12-09T03:43:27.617Z,4.77
2022-12-09T03:45:55.763Z,6.00
2022-12-09T03:48:23.547Z,6.50
2022-12-09T03:50:58.219Z,8.37
2022-12-09T03:53:41.789Z,7.30
2022-12-09T03:56:18.724Z,5.17
2022-12-09T03:58:47.606Z,7.00
2022-12-09T04:01:15.287Z,6.70
2022-12-09T04:03:46.260Z,10.17
2022-12-09T04:06:13.162Z,8.60
2022-12-09T04:08:39.847Z,6.23
2022-12-09T04:11:06.343Z,8.20
2022-12-09T04:13:32.732Z,8.30
2022-12-09T04:15:59.330Z,6.90
2022-12-09T04:18:26.378Z,7.73
2022-12-09T04:20:53.020Z,6.90
2022-12-09T04:23:19.548Z,5.60
2022-12-09T04:25:46.109Z,7.20
2022-12-09T04:28:12.678Z,8.37
2022-12-09T04:30:39.161Z,7.17
2022-12-09T04:33:05.827Z,7.57
2022-12-09T04:35:32.562Z,7.10
2022-12-09T04:37:59.073Z,7.47
2022-12-09T04:40:25.930Z,8.43
2022-12-09T04:42:52.728Z,10.43
2022-12-09T04:45:19.208Z,7.37
2022-12-09T04:47:45.793Z,8.77
2022-12-09T04:50:13.201Z,7.67
2022-12-09T04:52:40.065Z,8.80
2022-12-09T04:55:07.562Z,8.77
2022-12-09T04:57:34.076Z,7.00
2022-12-09T05:00:00.602Z,6.80
2022-12-09T05:02:27.508Z,8.80
2022-12-09T05:04:54.365Z,7.87
2022-12-09T05:07:23.441Z,8.50
2022-12-09T05:09:50.343Z,7.90
2022-12-09T05:12:17.405Z,7.67
2022-12-09T05:14:43.851Z,8.17
2022-12-09T05:17:10.409Z,7.67
2022-12-09T05:19:37.280Z,12.87
2022-12-09T05:22:04.064Z,7.50
2022-12-09T05:24:31.837Z,10.20
2022-12-09T05:26:58.285Z,10.10
2022-12-09T05:29:24.984Z,8.80
2022-12-09T05:31:51.938Z,11.03
2022-12-09T05:34:19.055Z,8.27
2022-12-09T05:36:46.182Z,11.03
2022-12-09T05:39:12.791Z,10.23
2022-12-09T05:41:39.544Z,11.17
2022-12-09T05:44:06.378Z,12.50
2022-12-09T05:46:32.977Z,10.20
2022-12-09T05:48:59.695Z,11.40
2022-12-09T05:51:28.594Z,11.63
2022-12-09T05:53:56.739Z,11.40
2022-12-09T05:56:24.716Z,12.60
2022-12-09T05:58:52.731Z,11.37
2022-12-09T06:01:19.956Z,13.40
2022-12-09T06:03:48.319Z,11.63
2022-12-09T06:06:18.009Z,11.23
2022-12-09T06:08:45.915Z,11.97
2022-12-09T06:11:15.548Z,10.67
2022-12-09T06:13:42.401Z,12.23
2022-12-09T06:16:09.900Z,13.07
2022-12-09T06:18:37.596Z,11.70
2022-12-09T06:21:09.364Z,13.37
2022-12-09T06:23:37.907Z,12.57
2022-12-09T06:26:05.073Z,12.70
2022-12-09T06:28:33.250Z,13.80
2022-12-09T06:31:00.814Z,13.83
2022-12-09T06:33:53.625Z,12.03
2022-12-09T06:36:13.981Z,11.90
2022-12-09T06:38:41.203Z,13.20
2022-12-09T06:41:09.917Z,11.20
2022-12-09T06:43:37.602Z,13.10
2022-12-09T06:46:11.159Z,16.33
2022-12-09T06:48:38.015Z,18.90
2022-12-09T06:51:04.545Z,14.20
2022-12-09T06:53:31.728Z,14.40
2022-12-09T06:56:09.498Z,13.77
2022-12-09T06:58:38.066Z,18.70
2022-12-09T07:01:13.853Z,14.00
2022-12-09T07:03:50.303Z,17.77
2022-12-09T07:06:31.067Z,17.10
2022-12-09T07:09:00.958Z,15.73
2022-12-09T07:11:28.445Z,15.97
2022-12-09T07:13:55.513Z,15.37
2022-12-09T07:16:22.107Z,17.00
2022-12-09T07:18:48.745Z,17.30
2022-12-09T07:21:18.127Z,16.47
2022-12-09T07:23:45.538Z,14.57
2022-12-09T07:26:12.477Z,15.43
2022-12-09T07:28:42.685Z,11.70
2022-12-09T07:31:36.598Z,18.10
2022-12-09T07:34:04.720Z,15.10
2022-12-09T07:36:33.006Z,16.97
2022-12-09T07:39:04.848Z,16.90
2022-12-09T07:41:31.705Z,20.43
2022-12-09T07:43:58.536Z,18.77
2022-12-09T07:46:27.649Z,23.00
2022-12-09T07:48:56.221Z,24.50
2022-12-09T07:51:24.190Z,25.40
2022-12-09T07:53:51.866Z,21.47
2022-12-09T07:56:19.607Z,20.63
2022-12-09T07:58:48.227Z,22.53
2022-12-09T08:01:20.577Z,23.60
2022-12-09T08:03:48.465Z,21.57
2022-12-09T08:06:18.745Z,21.17
2022-12-09T08:08:46.615Z,25.50
2022-12-09T08:11:20.610Z,18.03
2022-12-09T08:13:48.213Z,16.90
2022-12-09T08:16:17.633Z,17.37
2022-12-09T08:18:45.528Z,17.17
2022-12-09T08:21:16.746Z,16.40
2022-12-09T08:23:44.060Z,16.80
2022-12-09T08:26:12.785Z,18.37
2022-12-09T08:28:39.612Z,16.23
2022-12-09T08:31:08.511Z,16.17
2022-12-09T08:33:36.389Z,17.60
2022-12-09T08:36:04.630Z,16.17
2022-12-09T08:38:32.059Z,13.67
2022-12-09T08:40:58.988Z,14.67
2022-12-09T08:43:25.797Z,14.67
2022-12-09T08:45:52.516Z,13.33
2022-12-09T08:48:19.169Z,16.10
2022-12-09T08:50:46.076Z,16.67
2022-12-09T08:53:13.256Z,16.57
2022-12-09T08:55:41.426Z,17.50
2022-12-09T08:58:07.857Z,16.77
2022-12-09T09:00:34.442Z,18.03
2022-12-09T09:03:01.086Z,19.10
2022-12-09T09:05:28.079Z,16.90
2022-12-09T09:07:55.077Z,18.60
2022-12-09T09:10:21.791Z,18.37
2022-12-09T09:12:48.607Z,17.17
2022-12-09T09:15:15.939Z,19.00
2022-12-09T09:17:48.177Z,16.33
2022-12-09T09:20:18.359Z,17.70
2022-12-09T09:22:45.057Z,17.30
2022-12-09T09:25:11.940Z,18.97
2022-12-09T09:27:39.099Z,15.03
2022-12-09T09:30:07.654Z,15.80
2022-12-09T09:32:34.649Z,15.30
2022-12-09T09:35:01.457Z,15.90
2022-12-09T09:37:28.485Z,17.73
2022-12-09T09:39:55.501Z,18.97
2022-12-09T09:42:31.491Z,18.63
2022-12-09T09:44:58.307Z,18.70
2022-12-09T09:47:38.854Z,19.50
2022-12-09T09:50:18.372Z,23.60
2022-12-09T09:52:45.383Z,20.67
2022-12-09T09:55:18.353Z,18.20
2022-12-09T09:57:57.628Z,18.20
2022-12-09T10:00:35.358Z,23.63
2022-12-09T10:03:14.141Z,18.43
2022-12-09T10:05:55.116Z,33.70
2022-12-09T10:08:29.557Z,29.50
2022-12-09T10:11:20.982Z,29.70
2022-12-09T10:14:07.027Z,29.00
2022-12-09T10:16:45.631Z,26.50
2022-12-09T10:19:18.018Z,21.57
2022-12-09T10:21:45.385Z,28.50
2022-12-09T10:24:20.089Z,22.73
2022-12-09T10:26:57.070Z,26.37
2022-12-09T10:29:47.769Z,22.13
2022-12-09T10:32:18.794Z,24.40
2022-12-09T10:34:47.717Z,22.10
2022-12-09T10:37:27.704Z,20.93
2022-12-09T10:40:15.510Z,23.80
2022-12-09T10:43:11.697Z,20.33
2022-12-09T10:48:44.839Z,19.53
2022-12-09T10:51:30.167Z,20.47
2022-12-09T10:53:59.983Z,21.00
2022-12-09T10:56:32.745Z,22.23
2022-12-09T10:59:20.363Z,22.30
2022-12-09T11:02:00.088Z,20.63
2022-12-09T11:04:40.768Z,18.33
2022-12-09T11:07:07.699Z,16.40
2022-12-09T11:09:37.732Z,20.90
2022-12-09T11:12:06.698Z,18.70
2022-12-09T11:14:39.775Z,16.90
2022-12-09T11:17:16.789Z,17.13
2022-12-09T11:19:47.095Z,17.20
2022-12-09T11:22:40.309Z,18.47
2022-12-09T11:25:15.776Z,18.60
2022-12-09T11:28:18.049Z,16.73
2022-12-09T11:31:28.509Z,17.60
2022-12-09T11:33:59.276Z,18.43
2022-12-09T11:36:30.988Z,19.97
2022-12-09T11:39:10.671Z,17.90
2022-12-09T11:41:55.989Z,17.87
2022-12-09T11:44:30.065Z,19.30
2022-12-09T11:47:20.467Z,20.00
2022-12-09T11:49:56.626Z,16.50
2022-12-09T11:52:29.243Z,17.73
2022-12-09T11:55:11.306Z,15.67
2022-12-09T11:58:00.951Z,18.70
2022-12-09T12:00:34.033Z,17.00
2022-12-09T12:03:18.853Z,15.87
2022-12-09T12:05:50.237Z,13.00
2022-12-09T12:08:32.709Z,16.17
2022-12-09T12:11:15.702Z,13.80
2022-12-09T12:13:47.225Z,16.40
2022-12-09T12:16:47.777Z,14.63
2022-12-09T12:19:38.045Z,15.83
2022-12-09T12:22:20.913Z,14.40
2022-12-09T12:24:47.331Z,17.33
2022-12-09T12:27:29.652Z,14.93
2022-12-09T12:30:13.399Z,14.23
2022-12-09T12:33:46.370Z,13.53
2022-12-09T12:36:03.352Z,15.93
2022-12-09T12:38:47.837Z,14.03
2022-12-09T12:41:28.815Z,13.20
2022-12-09T12:44:23.618Z,15.47
2022-12-09T12:47:01.846Z,13.70
2022-12-09T12:50:02.559Z,13.23
2022-12-09T12:52:56.198Z,12.23
2022-12-09T12:55:41.423Z,13.17
2022-12-09T12:58:30.194Z,15.10
2022-12-09T13:01:14.510Z,13.00
2022-12-09T13:03:56.147Z,12.70
2022-12-09T13:06:47.793Z,11.43
2022-12-09T13:09:38.163Z,12.87
2022-12-09T13:12:07.430Z,9.63
2022-12-09T13:14:47.424Z,11.70
2022-12-09T13:17:17.727Z,10.10
2022-12-09T13:19:50.253Z,10.13
2022-12-09T13:22:22.405Z,10.90
2022-12-09T13:25:05.003Z,10.13
2022-12-09T13:27:47.665Z,10.40
2022-12-09T13:30:21.903Z,13.90
2022-12-09T13:33:40.688Z,10.57
2022-12-09T13:36:19.676Z,11.47
2022-12-09T13:38:46.057Z,11.43
2022-12-09T13:41:27.629Z,13.00
2022-12-09T13:44:12.510Z,10.70
2022-12-09T13:46:39.810Z,15.57
2022-12-09T13:49:26.492Z,11.43
2022-12-09T13:51:55.237Z,12.80
2022-12-09T13:54:29.484Z,11.77
2022-12-09T13:57:34.282Z,11.17
2022-12-09T14:00:05.495Z,10.40
2022-12-09T14:02:52.529Z,12.30
2022-12-09T14:05:23.517Z,10.10
2022-12-09T14:07:56.529Z,11.80
2022-12-09T14:10:43.162Z,12.73
2022-12-09T14:13:22.564Z,12.60
2022-12-09T14:16:08.916Z,12.10
2022-12-09T14:18:35.597Z,14.00
2022-12-09T14:21:26.756Z,10.73
2022-12-09T14:24:08.985Z,12.40
2022-12-09T14:26:37.384Z,13.10
2022-12-09T14:29:04.277Z,11.40
2022-12-09T14:32:17.455Z,12.80
2022-12-09T14:34:47.091Z,14.60
2022-12-09T14:37:25.607Z,14.23
2022-12-09T14:40:00.666Z,17.03
2022-12-09T14:42:42.628Z,13.63
2022-12-09T14:45:21.846Z,16.60
2022-12-09T14:47:48.522Z,18.00
2022-12-09T14:50:24.130Z,16.67
2022-12-09T14:53:00.467Z,19.50
2022-12-09T14:55:29.192Z,17.87
2022-12-09T14:57:57.947Z,18.63
2022-12-09T15:00:24.889Z,19.43
2022-12-09T15:03:23.014Z,19.30
2022-12-09T15:05:39.399Z,19.27
2022-12-09T15:08:05.990Z,15.23
2022-12-09T15:10:36.380Z,20.13
2022-12-09T15:13:03.190Z,15.50
2022-12-09T15:15:36.407Z,15.10
2022-12-09T15:18:07.502Z,17.97
2022-12-09T15:20:40.235Z,15.83
2022-12-09T15:23:36.071Z,14.50
2022-12-09T15:26:23.560Z,16.17
2022-12-09T15:28:52.386Z,20.57
2022-12-09T15:31:21.422Z,18.23
2022-12-09T15:33:50.619Z,18.40
2022-12-09T15:36:24.598Z,18.73
2022-12-09T15:39:07.448Z,20.90
2022-12-09T15:41:58.590Z,20.20
2022-12-09T15:44:26.829Z,19.43
2022-12-09T15:46:55.723Z,19.80
2022-12-09T15:49:26.566Z,20.27
2022-12-09T15:51:55.604Z,19.00
2022-12-09T15:54:31.698Z,20.63
2022-12-09T15:57:01.947Z,21.93
2022-12-09T15:59:55.291Z,18.63
2022-12-09T16:02:33.590Z,21.43
2022-12-09T16:05:04.049Z,20.17
2022-12-09T16:07:32.840Z,27.80
2022-12-09T16:10:14.025Z,21.83
2022-12-09T16:12:41.723Z,21.13
2022-12-09T16:15:11.390Z,19.70
2022-12-09T16:17:54.491Z,21.80
2022-12-09T16:20:33.547Z,24.57
2022-12-09T16:23:02.163Z,22.93
2022-12-09T16:25:36.931Z,24.17
2022-12-09T16:28:06.138Z,25.63
2022-12-09T16:30:43.258Z,24.97
2022-12-09T16:33:21.119Z,23.27
2022-12-09T16:36:02.612Z,21.40
2022-12-09T16:38:31.299Z,30.17
2022-12-09T16:41:01.068Z,27.43
2022-12-09T16:43:28.666Z,23.50
2022-12-09T16:46:00.736Z,19.87
2022-12-09T16:48:29.440Z,23.27
2022-12-09T16:50:57.531Z,22.40
2022-12-09T16:53:41.050Z,22.87
2022-12-09T16:56:18.822Z,21.23
2022-12-09T16:58:45.257Z,17.80
2022-12-09T17:01:14.339Z,18.03
2022-12-09T17:03:47.480Z,18.70
2022-12-09T17:06:15.823Z,20.47
2022-12-09T17:08:42.464Z,19.80
2022-12-09T17:11:09.326Z,17.10
2022-12-09T17:13:35.846Z,19.20
2022-12-09T17:16:02.954Z,27.33
2022-12-09T17:18:29.755Z,25.50
2022-12-09T17:21:04.289Z,20.90
2022-12-09T17:23:36.137Z,24.67
2022-12-09T17:26:08.938Z,21.93
2022-12-09T17:28:35.785Z,17.57
2022-12-09T17:31:07.039Z,21.70
2022-12-09T17:33:33.381Z,23.93
2022-12-09T17:35:59.965Z,21.13
2022-12-09T17:38:29.215Z,20.10
2022-12-09T17:40:56.359Z,25.97
2022-12-09T17:43:22.852Z,24.77
2022-12-09T17:45:49.661Z,25.47
2022-12-09T17:48:16.179Z,26.63
2022-12-09T17:50:42.619Z,23.17
2022-12-09T17:53:09.222Z,20.63
2022-12-09T17:55:38.049Z,20.23
2022-12-09T17:58:04.648Z,18.33
2022-12-09T18:00:32.120Z,19.40
2022-12-09T18:02:58.479Z,22.27
2022-12-09T18:05:24.898Z,27.10
2022-12-09T18:07:52.475Z,25.93
2022-12-09T18:10:19.074Z,25.03
2022-12-09T18:12:45.541Z,24.73
2022-12-09T18:15:12.172Z,18.77
2022-12-09T18:17:38.666Z,20.17
2022-12-09T18:20:06.092Z,18.73
2022-12-09T18:22:32.755Z,18.23
2022-12-09T18:24:59.428Z,23.20
2022-12-09T18:27:25.873Z,13.67
2022-12-09T18:29:52.290Z,15.47
2022-12-09T18:32:18.750Z,16.50
2022-12-09T18:34:46.305Z,16.70
2022-12-09T18:37:13.125Z,16.27
2022-12-09T18:39:39.578Z,15.57
2022-12-09T18:42:06.122Z,17.73
2022-12-09T18:44:32.563Z,23.03
2022-12-09T18:46:59.600Z,21.77
2022-12-09T18:49:28.267Z,23.57
2022-12-09T18:51:55.708Z,20.70
2022-12-09T18:54:28.214Z,19.13
2022-12-09T18:56:55.966Z,23.07
2022-12-09T18:59:24.975Z,25.67
2022-12-09T19:01:52.088Z,28.00
2022-12-09T19:04:24.647Z,27.70
2022-12-09T19:06:53.990Z,27.20
2022-12-09T19:09:23.255Z,29.00
2022-12-09T19:11:51.463Z,21.97
2022-12-09T19:14:21.175Z,25.30
2022-12-09T19:16:48.235Z,22.00
2022-12-09T19:19:17.351Z,17.23
2022-12-09T19:21:43.996Z,20.30
2022-12-09T19:24:14.903Z,17.27
2022-12-09T19:26:42.802Z,18.93
2022-12-09T19:29:10.463Z,20.93
2022-12-09T19:31:43.043Z,16.33
2022-12-09T19:34:16.505Z,18.50
2022-12-09T19:36:44.172Z,19.50
2022-12-09T19:39:12.200Z,19.73
2022-12-09T19:41:40.328Z,20.97
2022-12-09T19:44:07.576Z,23.50
2022-12-09T19:46:35.032Z,21.27
2022-12-09T19:49:01.669Z,20.30
2022-12-09T19:51:28.214Z,20.30
2022-12-09T19:53:56.582Z,16.43
2022-12-09T19:56:23.735Z,15.80
2022-12-09T19:58:51.910Z,15.10
2022-12-09T20:01:21.465Z,19.83
2022-12-09T20:03:51.114Z,22.90
2022-12-09T20:06:21.294Z,25.97
2022-12-09T20:08:50.483Z,27.10
2022-12-09T20:11:30.351Z,20.47
2022-12-09T20:13:58.690Z,28.40
2022-12-09T20:16:26.551Z,27.43
2022-12-09T20:18:59.063Z,27.60
2022-12-09T20:21:26.210Z,22.10
2022-12-09T20:23:53.966Z,20.03
2022-12-09T20:26:31.650Z,19.47
2022-12-09T20:29:01.858Z,18.40
2022-12-09T20:31:30.473Z,22.33
2022-12-09T20:34:02.506Z,21.10
2022-12-09T20:36:31.310Z,17.07
2022-12-09T20:39:03.271Z,16.57
2022-12-09T20:41:31.881Z,19.07
2022-12-09T20:44:00.104Z,15.20
2022-12-09T20:46:38.333Z,17.80
2022-12-09T20:49:04.729Z,17.97
2022-12-09T20:51:34.145Z,17.40
2022-12-09T20:54:01.098Z,13.27
2022-12-09T20:56:28.993Z,14.13
2022-12-09T20:58:55.941Z,17.37
2022-12-09T21:01:25.247Z,13.20
2022-12-09T21:03:53.475Z,12.90
2022-12-09T21:06:22.309Z,17.73
2022-12-09T21:08:49.633Z,22.40
2022-12-09T21:11:19.003Z,13.90
2022-12-09T21:13:47.836Z,14.70
2022-12-09T21:16:25.315Z,15.03
2022-12-09T21:18:54.165Z,12.80
2022-12-09T21:21:22.537Z,16.83
2022-12-09T21:23:50.204Z,17.57
2022-12-09T21:26:18.662Z,16.50
2022-12-09T21:28:46.627Z,16.60
2022-12-09T21:31:19.430Z,18.30
2022-12-09T21:33:48.071Z,17.00
2022-12-09T21:36:19.957Z,14.10
2022-12-09T21:38:46.582Z,17.10
2022-12-09T21:41:22.419Z,15.10
2022-12-09T21:43:49.283Z,16.00
2022-12-09T21:46:20.980Z,17.20
2022-12-09T21:48:51.983Z,17.50
2022-12-09T21:51:20.346Z,19.93
2022-12-09T21:53:47.487Z,13.77
2022-12-09T21:56:22.140Z,21.23
2022-12-09T21:58:50.395Z,15.53
2022-12-09T22:01:29.454Z,18.23
2022-12-09T22:03:57.487Z,16.80
2022-12-09T22:06:27.608Z,20.50
2022-12-09T22:08:54.096Z,18.50
2022-12-09T22:11:23.537Z,23.20
2022-12-09T22:13:50.169Z,25.60
2022-12-09T22:16:19.904Z,20.40
2022-12-09T22:18:47.521Z,17.00
2022-12-09T22:21:26.575Z,15.83
2022-12-09T22:23:54.998Z,14.87
2022-12-09T22:26:22.409Z,15.07
2022-12-09T22:28:49.020Z,17.87
2022-12-09T22:31:18.117Z,17.13
2022-12-09T22:33:44.667Z,16.40
2022-12-09T22:36:12.237Z,17.90
2022-12-09T22:38:39.973Z,15.30
2022-12-09T22:41:09.790Z,17.13
2022-12-09T22:43:38.191Z,16.77
2022-12-09T22:46:07.447Z,18.53
2022-12-09T22:48:34.651Z,17.93
2022-12-09T22:51:10.116Z,16.50
2022-12-09T22:53:36.941Z,19.40
2022-12-09T22:56:04.456Z,19.13
2022-12-09T22:58:31.237Z,22.73
2022-12-09T23:00:57.817Z,21.77
2022-12-09T23:03:24.567Z,20.83
2022-12-09T23:05:51.241Z,20.87
2022-12-09T23:08:18.407Z,24.80
2022-12-09T23:10:44.862Z,19.60
2022-12-09T23:13:11.398Z,22.20
2022-12-09T23:15:37.840Z,23.30
2022-12-09T23:18:04.404Z,19.77
2022-12-09T23:20:30.798Z,19.93
2022-12-09T23:22:57.346Z,26.63
2022-12-09T23:25:23.745Z,20.27
2022-12-09T23:27:50.098Z,20.67
2022-12-09T23:30:16.540Z,24.73
2022-12-09T23:32:42.898Z,22.10
2022-12-09T23:35:09.923Z,21.07
2022-12-09T23:37:36.298Z,19.00
2022-12-09T23:40:02.801Z,25.70
2022-12-09T23:42:29.188Z,20.43
2022-12-09T23:44:55.631Z,23.60
2022-12-09T23:47:22.017Z,20.63
2022-12-09T23:49:48.396Z,22.17
2022-12-09T23:52:14.845Z,24.30
2022-12-09T23:54:41.237Z,21.80
2022-12-09T23:57:07.807Z,23.87
2022-12-09T23:59:34.217Z,24.70
